Time;durP1;ratioP1;P1;durP2;ratioP2;P2;SDS_P1;SDS_P2;PMS_P1;PMS_P2;Temp;Humidity;BMP_temperature;BMP_pressure;BME280_temperature;BME280_humidity;BME280_pressure;Samples;Min_cycle;Max_cycle;Signal;HPM_P1;HPM_P2
2022/09/21 00:01:15;;;;;;;0.77;0.50;;;11.10;99.90;;;;;;4971111;28;20227;-90
2022/09/21 00:03:42;;;;;;;5.23;1.03;;;11.10;99.90;;;;;;4986721;28;20212;-90
2022/09/21 00:06:14;;;;;;;1.93;0.67;;;11.10;99.90;;;;;;4971365;28;20303;-90
2022/09/21 00:08:40;;;;;;;1.13;1.03;;;11.20;99.90;;;;;;4969971;28;20241;-91
2022/09/21 00:11:07;;;;;;;1.17;1.00;;;11.10;99.90;;;;;;4986101;28;20231;-91
2022/09/21 00:13:36;;;;;;;1.70;0.70;;;11.10;99.90;;;;;;4954086;28;20218;-92
2022/09/21 00:16:05;;;;;;;1.83;1.03;;;11.10;99.90;;;;;;4955405;28;20291;-92
2022/09/21 00:18:32;;;;;;;1.10;0.70;;;11.20;99.90;;;;;;4986213;28;20723;-92
2022/09/21 00:20:58;;;;;;;1.10;1.07;;;11.20;99.90;;;;;;4954256;28;20227;-92
2022/09/21 00:23:25;;;;;;;0.63;0.63;;;11.10;99.90;;;;;;4953821;28;20220;-91
2022/09/21 00:25:51;;;;;;;1.53;0.93;;;11.10;99.90;;;;;;4954097;28;20205;-92
2022/09/21 00:28:17;;;;;;;2.10;1.07;;;11.10;99.90;;;;;;4954555;28;20192;-92
2022/09/21 00:30:43;;;;;;;6.33;0.93;;;11.10;99.90;;;;;;4954114;28;21253;-92
2022/09/21 00:33:08;;;;;;;2.97;1.73;;;11.10;99.90;;;;;;4953793;28;20222;-91
2022/09/21 00:35:34;;;;;;;0.93;0.70;;;11.10;99.90;;;;;;4953558;28;20224;-92
2022/09/21 00:38:01;;;;;;;1.27;1.17;;;11.20;99.90;;;;;;4954042;28;20216;-91
2022/09/21 00:40:28;;;;;;;1.53;1.00;;;11.20;99.90;;;;;;4953936;28;20196;-91
2022/09/21 00:43:09;;;;;;;2.93;1.90;;;11.30;99.90;;;;;;4954146;28;20727;-91
2022/09/21 00:45:35;;;;;;;5.27;1.60;;;11.30;99.90;;;;;;4955666;28;20336;-91
2022/09/21 00:48:01;;;;;;;3.53;1.43;;;11.30;99.90;;;;;;4953439;28;20236;-91
2022/09/21 00:50:27;;;;;;;2.37;0.90;;;11.20;99.90;;;;;;4969813;28;20638;-91
2022/09/21 00:52:56;;;;;;;1.30;1.20;;;11.20;99.90;;;;;;4953359;28;20212;-90
2022/09/21 00:55:31;;;;;;;3.47;0.97;;;11.10;99.90;;;;;;4985942;28;20200;-91
2022/09/21 00:58:07;;;;;;;0.90;0.70;;;10.90;99.90;;;;;;4970385;28;20188;-92
2022/09/21 01:00:33;;;;;;;0.87;0.83;;;10.60;99.90;;;;;;4969150;28;20274;-91
2022/09/21 01:03:00;;;;;;;0.80;0.60;;;10.60;99.90;;;;;;4969624;28;20251;-90
2022/09/21 01:05:29;;;;;;;1.17;0.83;;;10.50;99.90;;;;;;4937472;28;20286;-91
2022/09/21 01:07:57;;;;;;;1.43;0.83;;;10.50;99.90;;;;;;4953485;28;20255;-91
2022/09/21 01:10:24;;;;;;;1.27;0.60;;;10.50;99.90;;;;;;4968944;28;20213;-90
2022/09/21 01:13:20;;;;;;;1.77;0.63;;;10.50;99.90;;;;;;4953728;28;20201;-91
2022/09/21 01:16:10;;;;;;;1.70;0.80;;;10.50;99.90;;;;;;4969597;28;20223;-91
2022/09/21 01:18:43;;;;;;;0.73;0.50;;;10.40;99.90;;;;;;4968816;28;20208;-91
2022/09/21 01:21:22;;;;;;;1.47;0.90;;;10.30;99.90;;;;;;4968990;28;20291;-91
2022/09/21 01:24:08;;;;;;;0.43;0.40;;;10.30;99.90;;;;;;4985197;28;20227;-90
2022/09/21 01:26:43;;;;;;;9.47;0.70;;;10.20;99.90;;;;;;4969262;28;20229;-91
2022/09/21 01:29:27;;;;;;;4.13;0.73;;;10.20;99.90;;;;;;4984659;28;20220;-91
2022/09/21 01:32:08;;;;;;;0.60;0.60;;;10.10;99.90;;;;;;4969070;28;20701;-91
2022/09/21 01:34:56;;;;;;;1.23;1.10;;;10.10;99.90;;;;;;4968253;28;20379;-91
2022/09/21 01:37:32;;;;;;;2.70;1.33;;;10.10;99.90;;;;;;4984460;28;20197;-91
2022/09/21 01:40:01;;;;;;;5.43;1.37;;;10.20;99.90;;;;;;4984373;28;20208;-91
2022/09/21 01:42:30;;;;;;;1.37;0.97;;;10.30;99.90;;;;;;4968533;28;20231;-91
2022/09/21 01:45:00;;;;;;;2.13;1.60;;;10.40;99.90;;;;;;4952528;28;20338;-91
2022/09/21 01:47:30;;;;;;;3.13;1.10;;;10.40;99.90;;;;;;4984834;28;20318;-92
2022/09/21 01:50:00;;;;;;;6.80;1.80;;;10.40;99.90;;;;;;4968329;28;20335;-91
2022/09/21 01:52:41;;;;;;;2.30;1.30;;;10.50;99.90;;;;;;4968759;28;20282;-91
2022/09/21 01:55:21;;;;;;;4.33;1.00;;;10.50;99.90;;;;;;4969067;28;20191;-91
2022/09/21 01:57:53;;;;;;;2.37;1.33;;;10.50;99.90;;;;;;4969155;28;20697;-91
2022/09/21 02:00:19;;;;;;;1.10;0.97;;;10.50;99.90;;;;;;4984917;28;20227;-91
2022/09/21 02:03:01;;;;;;;1.87;1.53;;;10.50;99.90;;;;;;4952083;28;20364;-92
2022/09/21 02:05:29;;;;;;;4.47;1.40;;;10.50;99.90;;;;;;4968507;28;20712;-91
2022/09/21 02:07:56;;;;;;;1.90;1.67;;;10.60;99.90;;;;;;4952254;28;20228;-91
2022/09/21 02:10:33;;;;;;;5.00;1.50;;;10.50;99.90;;;;;;4952258;28;20232;-91
2022/09/21 02:13:04;;;;;;;2.60;1.40;;;10.60;99.90;;;;;;4968747;28;20199;-90
2022/09/21 02:15:38;;;;;;;9.90;2.27;;;10.60;99.90;;;;;;4968119;28;20864;-91
2022/09/21 02:18:17;;;;;;;4.67;1.33;;;10.50;99.90;;;;;;4984049;28;20229;-91
2022/09/21 02:20:56;;;;;;;1.43;1.27;;;10.30;99.90;;;;;;4968457;28;20220;-91
2022/09/21 02:23:42;;;;;;;1.07;0.87;;;10.30;99.90;;;;;;4968605;28;20224;-91
2022/09/21 02:26:32;;;;;;;2.50;1.37;;;10.40;99.90;;;;;;4967868;28;20231;-92
2022/09/21 02:29:05;;;;;;;2.10;1.20;;;10.40;99.90;;;;;;4968591;28;20216;-92
2022/09/21 02:31:59;;;;;;;1.10;0.97;;;10.50;99.90;;;;;;4967495;28;20916;-90
2022/09/21 02:34:32;;;;;;;1.10;0.87;;;10.50;99.90;;;;;;4967819;28;20645;-91
2022/09/21 02:37:09;;;;;;;0.77;0.77;;;10.50;99.90;;;;;;4984783;28;20259;-92
2022/09/21 02:39:49;;;;;;;8.60;1.57;;;10.60;99.90;;;;;;4967916;28;20208;-92
2022/09/21 02:42:28;;;;;;;1.43;1.10;;;10.60;99.90;;;;;;4968048;28;20311;-91
2022/09/21 02:45:06;;;;;;;2.23;0.93;;;10.60;99.90;;;;;;4967541;28;20688;-91
2022/09/21 02:47:45;;;;;;;2.13;0.63;;;10.60;99.90;;;;;;4967684;28;20216;-91
2022/09/21 02:50:24;;;;;;;1.03;0.97;;;10.50;99.90;;;;;;4967186;28;20213;-92
2022/09/21 02:52:51;;;;;;;8.53;1.30;;;10.50;99.90;;;;;;4967924;28;20228;-91
2022/09/21 02:55:17;;;;;;;2.73;0.97;;;10.50;99.90;;;;;;4952386;28;20192;-91
2022/09/21 02:57:46;;;;;;;5.70;1.20;;;10.50;99.90;;;;;;4952286;28;20203;-91
2022/09/21 03:00:13;;;;;;;1.27;0.83;;;10.50;99.90;;;;;;4983434;28;20213;-91
2022/09/21 03:02:42;;;;;;;2.53;1.37;;;10.50;99.90;;;;;;4951739;28;20219;-91
2022/09/21 03:05:10;;;;;;;0.80;0.80;;;10.50;99.90;;;;;;4967904;28;20235;-91
2022/09/21 03:07:36;;;;;;;1.17;1.07;;;10.50;99.90;;;;;;4967413;28;20275;-91
2022/09/21 03:10:03;;;;;;;3.63;1.20;;;10.40;99.90;;;;;;4951816;28;20240;-91
2022/09/21 03:12:31;;;;;;;4.17;1.37;;;10.40;99.90;;;;;;4951549;28;20779;-91
2022/09/21 03:14:57;;;;;;;2.47;1.30;;;10.40;99.90;;;;;;4967492;28;20208;-91
2022/09/21 03:17:23;;;;;;;3.93;1.40;;;10.40;99.90;;;;;;4950741;28;20220;-91
2022/09/21 03:19:49;;;;;;;5.47;1.50;;;10.40;99.90;;;;;;4951342;28;20286;-91
2022/09/21 03:22:16;;;;;;;1.93;1.83;;;10.40;99.90;;;;;;4951977;28;20214;-91
2022/09/21 03:24:45;;;;;;;1.57;1.23;;;10.40;99.90;;;;;;4951940;28;20263;-91
2022/09/21 03:27:16;;;;;;;1.53;1.27;;;10.40;99.90;;;;;;4952139;28;20331;-91
2022/09/21 03:29:41;;;;;;;1.37;0.93;;;10.40;99.90;;;;;;4967492;28;20308;-91
2022/09/21 03:32:07;;;;;;;6.23;1.23;;;10.40;99.90;;;;;;4950923;28;20327;-91
2022/09/21 03:34:33;;;;;;;5.23;1.40;;;10.30;99.90;;;;;;4951210;28;20282;-91
2022/09/21 03:37:04;;;;;;;2.33;1.30;;;10.40;99.90;;;;;;4951756;28;20216;-91
2022/09/21 03:39:30;;;;;;;2.17;1.10;;;10.30;99.90;;;;;;4983658;28;20225;-91
2022/09/21 03:41:56;;;;;;;2.20;0.97;;;10.30;99.90;;;;;;4951699;28;20828;-90
2022/09/21 03:44:23;;;;;;;0.93;0.90;;;10.30;99.90;;;;;;4951761;28;20276;-92
2022/09/21 03:46:52;;;;;;;1.50;1.40;;;10.30;99.90;;;;;;4951535;28;20712;-91
2022/09/21 03:49:19;;;;;;;6.83;1.50;;;10.20;99.90;;;;;;4952066;28;20282;-91
2022/09/21 03:51:44;;;;;;;2.63;1.50;;;10.20;99.90;;;;;;4968237;28;20803;-91
2022/09/21 03:54:11;;;;;;;2.90;1.10;;;10.20;99.90;;;;;;4951217;28;20304;-91
2022/09/21 03:56:36;;;;;;;1.10;1.00;;;10.20;99.90;;;;;;4966643;28;20705;-91
2022/09/21 03:59:03;;;;;;;2.07;0.87;;;10.20;99.90;;;;;;4951815;28;20219;-92
2022/09/21 04:01:29;;;;;;;7.17;1.57;;;10.20;99.90;;;;;;4952065;28;20249;-91
2022/09/21 04:03:54;;;;;;;2.97;1.63;;;10.20;99.90;;;;;;4955369;28;20641;-91
2022/09/21 04:06:20;;;;;;;1.33;1.07;;;10.20;99.90;;;;;;4954216;28;20216;-90
2022/09/21 04:08:46;;;;;;;1.00;0.93;;;10.10;99.90;;;;;;4954363;28;20314;-94
2022/09/21 04:11:14;;;;;;;1.50;1.00;;;10.10;99.90;;;;;;4954677;28;20701;-92
2022/09/21 04:13:41;;;;;;;2.70;1.83;;;10.10;99.90;;;;;;4970100;28;20220;-93
2022/09/21 04:16:08;;;;;;;8.73;1.43;;;10.10;99.90;;;;;;4955101;28;20212;-91
2022/09/21 04:18:35;;;;;;;1.27;1.17;;;10.10;99.90;;;;;;4969671;28;20215;-92
2022/09/21 04:21:00;;;;;;;0.73;0.67;;;10.00;99.90;;;;;;4954532;28;20223;-93
2022/09/21 04:23:26;;;;;;;2.10;0.90;;;9.90;99.90;;;;;;4954724;28;20580;-91
2022/09/21 04:25:54;;;;;;;1.10;1.00;;;9.70;99.90;;;;;;4954597;28;20212;-91
2022/09/21 04:28:20;;;;;;;0.80;0.77;;;9.50;99.90;;;;;;4986507;28;20259;-93
2022/09/21 04:30:45;;;;;;;0.90;0.90;;;9.30;99.90;;;;;;4955213;28;20682;-93
2022/09/21 04:33:13;;;;;;;2.37;1.07;;;9.10;99.90;;;;;;4954485;28;20240;-92
2022/09/21 04:35:39;;;;;;;3.40;1.03;;;9.10;99.90;;;;;;4954784;28;20220;-94
2022/09/21 04:38:05;;;;;;;0.50;0.50;;;9.10;99.90;;;;;;4954082;28;20306;-92
2022/09/21 04:40:30;;;;;;;0.60;0.60;;;9.00;99.90;;;;;;4954763;28;20192;-93
2022/09/21 04:42:57;;;;;;;0.83;0.83;;;9.00;99.90;;;;;;4954915;28;20664;-91
2022/09/21 04:45:23;;;;;;;1.20;1.10;;;9.00;99.90;;;;;;4954686;28;20303;-93
2022/09/21 04:47:49;;;;;;;3.00;1.30;;;9.00;99.90;;;;;;4954355;28;20652;-92
2022/09/21 04:50:15;;;;;;;6.03;1.27;;;9.10;99.90;;;;;;4953672;28;20311;-92
2022/09/21 04:52:41;;;;;;;1.13;1.00;;;9.20;99.90;;;;;;4953825;28;20212;-91
2022/09/21 04:55:07;;;;;;;2.97;1.43;;;9.30;99.90;;;;;;4954510;28;20197;-92
2022/09/21 04:57:34;;;;;;;0.90;0.83;;;9.40;99.90;;;;;;4969652;28;20259;-91
2022/09/21 05:00:01;;;;;;;2.77;0.83;;;9.40;99.90;;;;;;4954131;28;20216;-93
2022/09/21 05:02:27;;;;;;;2.73;1.40;;;9.60;99.90;;;;;;4953682;28;20228;-91
2022/09/21 05:04:52;;;;;;;1.13;0.90;;;9.60;99.90;;;;;;4953915;28;20263;-92
2022/09/21 05:07:18;;;;;;;2.83;1.80;;;9.60;99.90;;;;;;4953773;28;20180;-91
2022/09/21 05:10:02;;;;;;;2.90;1.47;;;9.70;99.90;;;;;;4969641;28;20271;-92
2022/09/21 05:12:29;;;;;;;2.27;0.97;;;9.60;99.90;;;;;;4969712;28;20401;-92
2022/09/21 05:14:55;;;;;;;2.63;1.10;;;9.50;99.90;;;;;;4944390;28;20220;-92
2022/09/21 05:17:22;;;;;;;2.43;1.00;;;9.50;99.90;;;;;;4953682;28;20220;-92
2022/09/21 05:19:48;;;;;;;2.30;1.17;;;9.40;99.90;;;;;;4953636;28;20633;-93
2022/09/21 05:22:14;;;;;;;0.60;0.50;;;9.30;99.90;;;;;;4953913;28;20272;-91
2022/09/21 05:24:40;;;;;;;3.13;0.93;;;9.10;99.90;;;;;;4953584;28;20228;-91
2022/09/21 05:27:06;;;;;;;1.07;0.90;;;8.90;99.90;;;;;;4953484;28;20225;-91
2022/09/21 05:29:32;;;;;;;0.57;0.57;;;8.70;99.90;;;;;;4953211;28;20246;-87
2022/09/21 05:32:21;;;;;;;0.60;0.60;;;8.60;99.90;;;;;;4952945;28;20708;-91
2022/09/21 05:35:08;;;;;;;1.20;1.10;;;8.60;99.90;;;;;;4968734;28;20231;-91
2022/09/21 05:37:46;;;;;;;0.47;0.47;;;8.80;99.90;;;;;;4969172;28;20642;-90
2022/09/21 05:40:13;;;;;;;2.87;0.53;;;9.20;99.90;;;;;;4968560;28;21151;-89
2022/09/21 05:42:39;;;;;;;0.70;0.70;;;9.60;99.90;;;;;;4968266;28;20216;-89
2022/09/21 05:45:07;;;;;;;1.33;1.00;;;10.20;99.90;;;;;;4968730;28;20231;-90
2022/09/21 05:47:51;;;;;;;0.63;0.63;;;10.80;99.90;;;;;;4968876;28;20339;-90
2022/09/21 05:50:43;;;;;;;0.67;0.67;;;11.50;99.90;;;;;;4985302;28;20232;-90
2022/09/21 05:53:30;;;;;;;1.43;1.00;;;12.10;99.90;;;;;;4969325;28;20685;-89
2022/09/21 05:56:03;;;;;;;1.67;0.60;;;12.10;99.90;;;;;;4968048;28;20755;-87
2022/09/21 05:58:48;;;;;;;4.93;1.90;;;11.80;99.90;;;;;;4952461;28;20712;-88
2022/09/21 06:01:32;;;;;;;1.03;0.93;;;11.50;99.90;;;;;;4968818;28;20215;-87
2022/09/21 06:04:00;;;;;;;0.40;0.40;;;11.30;99.90;;;;;;4968332;28;20212;-87
2022/09/21 06:06:25;;;;;;;1.17;1.00;;;11.20;99.90;;;;;;4968084;28;20712;-87
2022/09/21 06:08:51;;;;;;;1.60;1.30;;;11.10;99.90;;;;;;4951358;28;20244;-87
2022/09/21 06:11:17;;;;;;;2.33;1.40;;;11.00;99.90;;;;;;4951958;28;20239;-87
2022/09/21 06:13:43;;;;;;;1.37;0.97;;;11.00;99.90;;;;;;4951233;28;20302;-88
2022/09/21 06:16:10;;;;;;;1.73;1.20;;;11.00;99.90;;;;;;4968728;28;20708;-87
2022/09/21 06:18:38;;;;;;;1.00;1.00;;;11.10;99.90;;;;;;4951822;28;20259;-88
2022/09/21 06:21:05;;;;;;;1.47;1.37;;;11.20;99.90;;;;;;4951565;28;20220;-88
2022/09/21 06:23:31;;;;;;;2.63;0.93;;;11.30;99.90;;;;;;4951180;28;20319;-88
2022/09/21 06:25:56;;;;;;;1.93;1.77;;;11.40;99.90;;;;;;4951068;28;20895;-85
2022/09/21 06:28:22;;;;;;;1.87;1.57;;;11.70;99.90;;;;;;4951154;28;20535;-84
2022/09/21 06:30:53;;;;;;;3.43;1.30;;;12.40;99.90;;;;;;4951036;28;20219;-85
2022/09/21 06:33:22;;;;;;;6.43;1.37;;;14.00;99.90;;;;;;4951159;28;20220;-85
2022/09/21 06:35:58;;;;;;;1.90;1.60;;;15.80;99.90;;;;;;4951392;28;20697;-86
2022/09/21 06:38:25;;;;;;;7.50;1.90;;;18.10;99.90;;;;;;4950694;28;20220;-85
2022/09/21 06:40:52;;;;;;;2.23;1.50;;;20.30;99.90;;;;;;4951103;28;20235;-85
2022/09/21 06:43:18;;;;;;;0.80;0.70;;;22.30;99.90;;;;;;4983430;28;20637;-85
2022/09/21 06:45:56;;;;;;;1.60;0.80;;;24.00;99.90;;;;;;4935042;28;20243;-86
2022/09/21 06:48:22;;;;;;;3.83;1.20;;;25.40;99.90;;;;;;4966760;28;20310;-87
2022/09/21 06:50:49;;;;;;;1.07;1.00;;;25.60;99.90;;;;;;4951031;28;20316;-90
2022/09/21 06:53:16;;;;;;;4.67;1.07;;;26.00;99.90;;;;;;4951657;28;20774;-91
2022/09/21 06:55:42;;;;;;;0.70;0.70;;;25.80;99.90;;;;;;4983889;28;20367;-91
2022/09/21 06:58:08;;;;;;;1.67;0.70;;;26.20;99.90;;;;;;4968355;28;20199;-90
2022/09/21 07:00:34;;;;;;;2.40;1.07;;;26.70;99.90;;;;;;4951558;28;20220;-91
2022/09/21 07:03:00;;;;;;;1.20;0.83;;;26.30;99.90;;;;;;4967758;28;20224;-88
2022/09/21 07:05:25;;;;;;;2.53;1.17;;;26.60;99.90;;;;;;4952002;28;20251;-88
2022/09/21 07:07:57;;;;;;;1.67;0.93;;;27.10;99.90;;;;;;4967546;28;20741;-87
2022/09/21 07:10:23;;;;;;;2.37;0.90;;;27.50;99.90;;;;;;4951197;28;20267;-88
2022/09/21 07:12:50;;;;;;;4.83;1.03;;;27.90;99.90;;;;;;4951699;28;20192;-88
2022/09/21 07:15:18;;;;;;;1.13;0.90;;;28.20;99.90;;;;;;4951603;28;20236;-89
2022/09/21 07:17:44;;;;;;;2.83;1.20;;;28.60;99.90;;;;;;4951562;28;20226;-88
2022/09/21 07:20:10;;;;;;;4.93;1.47;;;28.30;99.90;;;;;;4951200;28;21208;-88
2022/09/21 07:22:36;;;;;;;4.43;1.43;;;28.20;99.90;;;;;;4951253;28;20307;-88
2022/09/21 07:25:04;;;;;;;1.47;1.00;;;28.00;99.90;;;;;;4952243;28;20219;-89
2022/09/21 07:27:31;;;;;;;0.90;0.80;;;28.70;99.90;;;;;;4966610;28;20232;-89
2022/09/21 07:29:57;;;;;;;1.52;0.90;;;29.20;99.90;;;;;;4966840;28;20212;-88
2022/09/21 07:32:24;;;;;;;2.78;0.98;;;29.70;99.90;;;;;;4950919;28;20278;-89
2022/09/21 07:34:53;;;;;;;3.63;1.00;;;29.90;99.70;;;;;;4951620;28;20251;-88
2022/09/21 07:37:18;;;;;;;3.03;1.17;;;29.70;99.90;;;;;;4970366;28;20571;-88
2022/09/21 07:39:44;;;;;;;3.15;1.00;;;29.80;99.80;;;;;;4956057;28;20189;-90
2022/09/21 07:42:10;;;;;;;1.77;1.20;;;30.00;98.20;;;;;;4955042;28;20220;-87
2022/09/21 07:44:35;;;;;;;1.95;0.88;;;29.80;99.60;;;;;;4971526;28;20236;-88
2022/09/21 07:47:02;;;;;;;1.83;0.93;;;29.90;99.00;;;;;;4954985;28;20236;-88
2022/09/21 07:49:27;;;;;;;1.15;0.80;;;30.00;99.60;;;;;;4955894;28;20534;-88
2022/09/21 07:51:53;;;;;;;2.03;0.98;;;29.90;99.30;;;;;;4954632;28;20263;-86
2022/09/21 07:54:19;;;;;;;0.70;0.70;;;29.90;99.00;;;;;;4970882;28;20744;-88
2022/09/21 07:59:04;;;;;;;2.47;0.93;;;29.90;98.80;;;;;;4955458;28;20224;-87
2022/09/21 07:59:31;;;;;;;3.75;0.93;;;30.10;98.20;;;;;;4970212;28;20763;-90
2022/09/21 08:01:57;;;;;;;3.28;1.02;;;29.80;98.20;;;;;;4954651;28;20248;-86
2022/09/21 08:04:23;;;;;;;3.35;1.10;;;30.10;97.30;;;;;;4970064;28;20263;-86
2022/09/21 08:06:49;;;;;;;3.00;0.90;;;29.60;99.40;;;;;;4971013;28;20189;-86
2022/09/21 08:09:15;;;;;;;3.83;0.90;;;29.80;98.60;;;;;;4954187;28;20343;-86
2022/09/21 08:11:43;;;;;;;2.90;1.17;;;30.00;98.40;;;;;;4954177;28;20267;-85
2022/09/21 08:14:18;;;;;;;2.03;0.90;;;30.20;98.40;;;;;;4954560;28;20285;-85
2022/09/21 08:16:45;;;;;;;1.42;0.82;;;30.00;96.60;;;;;;4970002;28;20676;-89
2022/09/21 08:19:12;;;;;;;2.38;0.90;;;29.80;99.10;;;;;;4971099;28;20200;-86
2022/09/21 08:21:37;;;;;;;1.23;0.95;;;30.10;97.60;;;;;;4953862;28;20213;-86
2022/09/21 08:24:03;;;;;;;1.67;0.80;;;30.40;97.90;;;;;;4969454;28;20234;-85
2022/09/21 08:26:29;;;;;;;1.48;0.82;;;30.10;97.30;;;;;;4931143;28;20244;-85
2022/09/21 08:28:57;;;;;;;1.63;0.68;;;30.50;95.70;;;;;;4954038;28;20213;-86
2022/09/21 08:31:23;;;;;;;1.50;0.95;;;30.50;93.90;;;;;;4954435;28;20216;-86
2022/09/21 08:33:49;;;;;;;3.75;0.80;;;29.90;95.40;;;;;;4954708;28;20647;-88
2022/09/21 08:36:16;;;;;;;2.17;0.50;;;30.30;95.20;;;;;;4952685;28;20213;-86
2022/09/21 08:38:42;;;;;;;1.85;0.55;;;30.20;94.80;;;;;;4969478;28;20275;-88
2022/09/21 08:41:40;;;;;;;2.72;0.80;;;30.20;93.70;;;;;;4954261;28;20228;-88
2022/09/21 08:44:23;;;;;;;3.60;1.05;;;30.50;93.50;;;;;;4970292;28;20212;-87
2022/09/21 08:47:09;;;;;;;4.22;0.60;;;30.80;92.70;;;;;;4968480;28;20246;-87
2022/09/21 08:49:39;;;;;;;2.22;0.60;;;30.60;93.00;;;;;;4970392;28;20212;-87
2022/09/21 08:52:08;;;;;;;1.80;0.70;;;30.90;91.70;;;;;;4970627;28;20654;-87
2022/09/21 08:54:54;;;;;;;0.60;0.50;;;30.70;90.10;;;;;;4985811;28;20295;-87
2022/09/21 08:57:24;;;;;;;2.50;0.93;;;29.70;91.90;;;;;;4970125;28;20660;-89
2022/09/21 08:59:50;;;;;;;0.60;0.50;;;29.90;91.50;;;;;;4985481;28;20618;-89
2022/09/21 09:02:43;;;;;;;1.73;0.50;;;28.90;88.80;;;;;;4954267;28;20736;-87
2022/09/21 09:05:43;;;;;;;1.80;0.63;;;26.60;90.90;;;;;;4970087;28;20307;-87
2022/09/21 09:08:21;;;;;;;0.60;0.60;;;24.60;96.80;;;;;;4985747;28;20221;-87
2022/09/21 09:11:32;;;;;;;1.52;0.80;;;23.60;99.50;;;;;;4985844;28;20266;-87
2022/09/21 09:14:15;;;;;;;3.95;0.75;;;22.90;99.90;;;;;;4984916;28;20228;-88
2022/09/21 09:17:11;;;;;;;3.95;1.00;;;22.40;99.90;;;;;;4970226;28;20220;-87
2022/09/21 09:19:46;;;;;;;1.15;0.60;;;21.90;99.90;;;;;;4970547;28;20694;-87
2022/09/21 09:22:20;;;;;;;2.93;0.60;;;22.00;99.90;;;;;;4987190;28;20184;-87
2022/09/21 09:24:54;;;;;;;1.83;1.00;;;22.00;99.90;;;;;;4969961;28;20251;-87
2022/09/21 09:27:40;;;;;;;2.03;0.57;;;22.80;99.90;;;;;;4985213;28;20244;-87
2022/09/21 09:30:16;;;;;;;3.73;0.80;;;23.20;99.90;;;;;;4970084;28;20749;-87
2022/09/21 09:32:58;;;;;;;0.70;0.70;;;23.00;99.90;;;;;;4985938;28;20228;-87
2022/09/21 09:35:32;;;;;;;0.47;0.43;;;24.10;99.90;;;;;;4970041;28;20748;-87
2022/09/21 09:38:23;;;;;;;4.03;0.60;;;25.20;99.10;;;;;;4969515;28;20299;-87
2022/09/21 09:41:04;;;;;;;1.10;0.50;;;25.00;99.40;;;;;;4985236;28;20724;-87
2022/09/21 09:43:46;;;;;;;1.67;0.70;;;23.20;99.90;;;;;;4985746;28;20189;-87
2022/09/21 09:46:28;;;;;;;0.60;0.60;;;24.20;99.90;;;;;;4969965;28;20200;-85
2022/09/21 09:49:04;;;;;;;1.45;0.65;;;25.10;99.20;;;;;;4968087;28;20224;-86
2022/09/21 09:51:32;;;;;;;1.83;0.50;;;26.50;98.30;;;;;;4984631;28;20694;-82
2022/09/21 09:53:59;;;;;;;5.18;0.68;;;27.60;93.40;;;;;;4952390;28;20204;-86
2022/09/21 09:56:26;;;;;;;1.42;0.95;;;27.40;94.00;;;;;;4952024;28;20705;-85
2022/09/21 09:58:56;;;;;;;1.40;0.85;;;27.70;93.00;;;;;;4949420;28;20212;-83
2022/09/21 10:01:41;;;;;;;1.88;0.70;;;28.30;93.70;;;;;;4967607;28;20185;-84
2022/09/21 10:04:13;;;;;;;4.53;0.95;;;28.20;92.50;;;;;;4968223;28;20273;-84
2022/09/21 10:06:39;;;;;;;1.40;0.70;;;26.80;93.30;;;;;;4969361;28;20220;-86
2022/09/21 10:09:29;;;;;;;4.13;0.80;;;27.20;93.10;;;;;;4968224;28;20621;-89
2022/09/21 10:12:00;;;;;;;1.75;0.55;;;25.90;95.20;;;;;;4983575;28;20244;-87
2022/09/21 10:14:30;;;;;;;6.70;0.85;;;24.80;97.20;;;;;;4967966;28;20492;-87
2022/09/21 10:17:02;;;;;;;1.17;0.60;;;22.40;99.10;;;;;;4967944;28;20220;-86
2022/09/21 10:19:28;;;;;;;1.52;0.63;;;21.40;99.90;;;;;;4983826;28;20177;-86
2022/09/21 10:21:59;;;;;;;3.15;0.75;;;20.70;99.90;;;;;;4968423;28;20287;-88
2022/09/21 10:24:27;;;;;;;3.15;0.80;;;21.30;99.90;;;;;;4968028;28;20217;-87
2022/09/21 10:27:05;;;;;;;1.50;0.57;;;22.60;99.90;;;;;;4967723;28;20224;-88
2022/09/21 10:29:45;;;;;;;3.60;0.60;;;23.40;99.90;;;;;;4967697;28;20220;-87
2022/09/21 10:32:28;;;;;;;1.63;0.50;;;23.70;97.50;;;;;;4967465;28;20236;-88
2022/09/21 10:35:11;;;;;;;1.35;0.80;;;23.40;99.40;;;;;;4982900;28;20286;-87
2022/09/21 10:37:52;;;;;;;1.05;0.65;;;24.90;98.10;;;;;;4968376;28;20314;-87
2022/09/21 10:40:20;;;;;;;2.72;1.02;;;26.70;95.00;;;;;;4968000;28;20721;-86
2022/09/21 10:42:57;;;;;;;0.77;0.70;;;27.50;95.00;;;;;;4984478;28;20188;-87
2022/09/21 10:45:29;;;;;;;2.20;0.75;;;27.50;92.50;;;;;;4967488;28;20235;-87
2022/09/21 10:47:56;;;;;;;1.77;0.60;;;27.40;90.80;;;;;;4966684;28;20311;-87
2022/09/21 10:50:35;;;;;;;0.43;0.43;;;27.80;93.60;;;;;;4967458;28;20213;-87
2022/09/21 10:53:18;;;;;;;1.65;0.65;;;27.80;91.30;;;;;;4984062;28;20800;-86
2022/09/21 10:56:07;;;;;;;1.58;0.60;;;27.00;92.20;;;;;;4967408;28;20216;-87
2022/09/21 10:58:34;;;;;;;0.50;0.50;;;27.00;92.70;;;;;;4967552;28;20180;-87
2022/09/21 11:01:12;;;;;;;1.52;0.68;;;26.80;89.70;;;;;;4967489;28;20280;-87
2022/09/21 11:03:52;;;;;;;1.20;0.50;;;27.50;92.30;;;;;;4967009;28;20231;-87
2022/09/21 11:06:26;;;;;;;1.15;0.73;;;28.30;91.20;;;;;;4967391;28;20622;-87
2022/09/21 11:09:11;;;;;;;2.67;0.63;;;28.80;90.70;;;;;;4966842;28;20788;-90
2022/09/21 11:12:00;;;;;;;4.07;0.77;;;28.60;90.10;;;;;;4984619;28;20302;-84
2022/09/21 11:14:46;;;;;;;1.05;0.50;;;29.10;87.50;;;;;;4970748;28;20275;-86
2022/09/21 11:17:37;;;;;;;2.97;0.70;;;29.30;90.20;;;;;;4968650;28;20247;-88
2022/09/21 11:20:15;;;;;;;1.00;0.50;;;29.30;87.50;;;;;;4972098;28;20212;-85
2022/09/21 11:23:02;;;;;;;2.17;0.52;;;29.20;89.10;;;;;;4970784;28;20567;-84
2022/09/21 11:25:31;;;;;;;1.75;0.63;;;28.60;84.30;;;;;;4973126;28;20569;-90
2022/09/21 11:28:35;;;;;;;1.13;0.55;;;28.60;86.60;;;;;;4973239;28;20189;-88
2022/09/21 11:31:25;;;;;;;1.65;0.65;;;28.60;86.30;;;;;;4969469;28;20771;-88
2022/09/21 11:34:19;;;;;;;3.00;0.70;;;28.00;84.10;;;;;;4971937;28;20211;-89
2022/09/21 11:36:56;;;;;;;3.35;0.60;;;27.60;86.10;;;;;;4971153;28;20244;-88
2022/09/21 11:39:43;;;;;;;1.17;0.55;;;25.70;90.60;;;;;;4987142;28;20220;-87
2022/09/21 11:42:21;;;;;;;0.73;0.70;;;24.20;91.90;;;;;;4987410;28;20565;-89
2022/09/21 11:44:59;;;;;;;1.92;0.60;;;23.30;92.70;;;;;;4971006;28;20243;-88
2022/09/21 11:48:06;;;;;;;3.00;0.80;;;22.60;95.10;;;;;;4971001;28;20227;-87
2022/09/21 11:50:48;;;;;;;1.92;0.63;;;22.90;97.10;;;;;;4937848;28;20340;-87
2022/09/21 11:53:21;;;;;;;1.15;0.60;;;24.30;93.60;;;;;;4969982;28;20227;-88
2022/09/21 11:56:17;;;;;;;0.77;0.55;;;25.00;93.70;;;;;;4971572;28;20216;-87
2022/09/21 11:59:16;;;;;;;3.05;0.43;;;25.30;92.90;;;;;;4970911;28;20212;-87
2022/09/21 12:02:14;;;;;;;0.60;0.60;;;25.30;91.60;;;;;;4970882;28;20215;-88
2022/09/21 12:04:59;;;;;;;0.85;0.60;;;25.30;93.10;;;;;;4954127;28;20216;-88
2022/09/21 12:08:01;;;;;;;0.70;0.70;;;25.00;92.70;;;;;;4970945;28;20274;-88
2022/09/21 12:10:45;;;;;;;2.88;0.93;;;23.70;94.40;;;;;;4970113;28;20232;-89
2022/09/21 12:13:36;;;;;;;1.98;0.70;;;23.80;95.60;;;;;;4970970;28;20188;-89
2022/09/21 12:16:18;;;;;;;4.68;1.02;;;24.20;95.40;;;;;;4986432;28;20212;-88
2022/09/21 12:19:32;;;;;;;1.75;0.75;;;23.80;93.00;;;;;;4970317;28;20734;-88
2022/09/21 12:22:12;;;;;;;0.40;0.40;;;22.00;95.40;;;;;;4969937;28;20209;-88
2022/09/21 12:24:41;;;;;;;3.00;0.73;;;22.20;97.80;;;;;;4970357;28;20221;-88
2022/09/21 12:27:27;;;;;;;0.45;0.45;;;22.60;99.50;;;;;;4986022;28;20220;-87
2022/09/21 12:29:57;;;;;;;2.60;0.90;;;22.90;98.30;;;;;;4970389;28;20216;-88
2022/09/21 12:32:43;;;;;;;1.10;0.47;;;22.80;98.80;;;;;;4970218;28;20228;-88
2022/09/21 12:35:32;;;;;;;2.42;0.90;;;22.40;97.30;;;;;;4970883;28;20221;-88
2022/09/21 12:38:15;;;;;;;3.17;1.00;;;22.70;97.70;;;;;;4970773;28;20220;-88
2022/09/21 12:41:25;;;;;;;0.50;0.50;;;22.60;99.10;;;;;;4970160;28;20220;-87
2022/09/21 12:44:16;;;;;;;1.23;0.63;;;22.40;97.70;;;;;;4935768;28;20253;-87
2022/09/21 12:47:08;;;;;;;1.10;0.50;;;22.20;98.00;;;;;;4970498;28;20224;-87
2022/09/21 12:49:41;;;;;;;2.17;0.77;;;22.30;99.90;;;;;;4969838;28;20185;-86
2022/09/21 12:52:07;;;;;;;1.37;0.67;;;21.70;98.10;;;;;;4970506;28;20612;-87
2022/09/21 12:54:46;;;;;;;3.80;0.67;;;21.80;99.90;;;;;;4969535;28;20212;-87
2022/09/21 12:57:31;;;;;;;1.40;0.57;;;21.80;98.10;;;;;;4968963;28;20209;-87
2022/09/21 13:00:05;;;;;;;3.20;0.90;;;21.60;99.90;;;;;;4969579;28;20303;-87
2022/09/21 13:02:41;;;;;;;1.50;0.53;;;21.80;99.90;;;;;;4970228;28;20274;-87
2022/09/21 13:05:25;;;;;;;0.93;0.50;;;21.70;99.90;;;;;;4969450;28;20291;-88
2022/09/21 13:08:06;;;;;;;0.60;0.53;;;21.70;99.90;;;;;;4970123;28;20716;-87
2022/09/21 13:10:41;;;;;;;2.20;0.77;;;20.60;99.90;;;;;;4985648;28;20274;-87
2022/09/21 13:13:37;;;;;;;2.57;0.50;;;20.40;99.90;;;;;;4969936;28;20191;-87
2022/09/21 13:16:06;;;;;;;1.97;0.67;;;20.90;99.90;;;;;;4964501;28;20227;-87
2022/09/21 13:18:39;;;;;;;0.97;0.53;;;20.60;99.90;;;;;;4969387;28;20279;-87
2022/09/21 13:21:14;;;;;;;0.87;0.67;;;20.10;99.90;;;;;;4952774;28;20224;-90